Terminal Aerodrome Forecast
Issued by NWS

Home | Current Version | Previous Version | Text Only | Print | Product List | Glossary On
Versions: 1 2 3 4 5 6 7 8 9 10 11 12 13 14 15 16 17 18 19 20
000
FTUS45 KPIH 182000 AAB
TAFSUN
TAF AMD
KSUN 182004Z 1820/1918 VRB06KT P6SM SCT020 OVC040
     FM182100 17006KT 4SM -SN BR SCT015 BKN025 OVC035
     FM190400 VRB06KT P6SM BKN020 OVC040
     FM190900 31008KT P6SM SCT025 OVC050=

USA.gov is the U.S. government's official web portal to all federal, state and local government web resources and services.